sensor_id;sensor_type;location;lat;lon;timestamp;temperature;humidity
2391;DHT22;22957;50.824;4.360;2023-10-13T00:01:59;19.60;99.90
2391;DHT22;22957;50.824;4.360;2023-10-13T00:04:25;19.70;99.90
2391;DHT22;22957;50.824;4.360;2023-10-13T00:06:55;19.60;99.90
2391;DHT22;22957;50.824;4.360;2023-10-13T00:09:24;19.70;99.90
2391;DHT22;22957;50.824;4.360;2023-10-13T00:11:54;19.80;99.90
2391;DHT22;22957;50.824;4.360;2023-10-13T00:14:20;19.60;99.90
2391;DHT22;22957;50.824;4.360;2023-10-13T00:16:56;19.60;99.90
2391;DHT22;22957;50.824;4.360;2023-10-13T00:19:35;19.70;99.90
2391;DHT22;22957;50.824;4.360;2023-10-13T00:22:10;19.80;99.90
2391;DHT22;22957;50.824;4.360;2023-10-13T00:24:40;19.80;99.90
2391;DHT22;22957;50.824;4.360;2023-10-13T00:27:12;19.80;99.90
2391;DHT22;22957;50.824;4.360;2023-10-13T00:29:51;19.70;99.90
2391;DHT22;22957;50.824;4.360;2023-10-13T00:32:16;19.80;99.90
2391;DHT22;22957;50.824;4.360;2023-10-13T00:34:48;19.80;99.90
2391;DHT22;22957;50.824;4.360;2023-10-13T00:37:20;19.90;99.90
2391;DHT22;22957;50.824;4.360;2023-10-13T00:39:52;19.80;99.90
2391;DHT22;22957;50.824;4.360;2023-10-13T00:42:22;19.80;99.90
2391;DHT22;22957;50.824;4.360;2023-10-13T00:45:08;19.80;99.90
2391;DHT22;22957;50.824;4.360;2023-10-13T00:47:34;19.80;99.90
2391;DHT22;22957;50.824;4.360;2023-10-13T00:50:15;19.80;99.90
2391;DHT22;22957;50.824;4.360;2023-10-13T00:52:44;19.80;99.90
2391;DHT22;22957;50.824;4.360;2023-10-13T00:55:13;19.70;99.90
2391;DHT22;22957;50.824;4.360;2023-10-13T00:57:40;19.70;99.90
2391;DHT22;22957;50.824;4.360;2023-10-13T01:00:06;19.80;99.90
2391;DHT22;22957;50.824;4.360;2023-10-13T01:02:58;19.80;99.90
2391;DHT22;22957;50.824;4.360;2023-10-13T01:05:31;19.70;99.90
2391;DHT22;22957;50.824;4.360;2023-10-13T01:08:01;19.70;99.90
2391;DHT22;22957;50.824;4.360;2023-10-13T01:10:27;19.80;99.90
2391;DHT22;22957;50.824;4.360;2023-10-13T01:12:54;19.90;99.90
2391;DHT22;22957;50.824;4.360;2023-10-13T01:15:20;19.90;99.90
2391;DHT22;22957;50.824;4.360;2023-10-13T01:17:47;19.70;99.90
2391;DHT22;22957;50.824;4.360;2023-10-13T01:20:16;19.60;99.90
2391;DHT22;22957;50.824;4.360;2023-10-13T01:22:51;19.80;99.90
2391;DHT22;22957;50.824;4.360;2023-10-13T01:25:25;19.80;99.90
2391;DHT22;22957;50.824;4.360;2023-10-13T01:27:54;19.70;99.90
2391;DHT22;22957;50.824;4.360;2023-10-13T01:30:20;19.80;99.90
2391;DHT22;22957;50.824;4.360;2023-10-13T01:32:53;19.90;99.90
2391;DHT22;22957;50.824;4.360;2023-10-13T01:35:19;19.70;99.90
2391;DHT22;22957;50.824;4.360;2023-10-13T01:37:51;19.80;99.90
2391;DHT22;22957;50.824;4.360;2023-10-13T01:40:17;19.90;99.90
2391;DHT22;22957;50.824;4.360;2023-10-13T01:42:47;19.80;99.90
2391;DHT22;22957;50.824;4.360;2023-10-13T01:45:23;19.70;99.90
2391;DHT22;22957;50.824;4.360;2023-10-13T01:47:57;19.80;99.90
2391;DHT22;22957;50.824;4.360;2023-10-13T01:50:22;19.70;99.90
2391;DHT22;22957;50.824;4.360;2023-10-13T01:52:55;19.70;99.90
2391;DHT22;22957;50.824;4.360;2023-10-13T01:55:43;19.70;99.90
2391;DHT22;22957;50.824;4.360;2023-10-13T01:58:14;19.60;99.90
2391;DHT22;22957;50.824;4.360;2023-10-13T02:00:48;19.60;99.90
2391;DHT22;22957;50.824;4.360;2023-10-13T02:03:14;19.60;99.90
2391;DHT22;22957;50.824;4.360;2023-10-13T02:05:47;19.60;99.90
2391;DHT22;22957;50.824;4.360;2023-10-13T02:08:17;19.60;99.90
2391;DHT22;22957;50.824;4.360;2023-10-13T02:13:17;19.60;99.90
2391;DHT22;22957;50.824;4.360;2023-10-13T02:15:46;19.60;99.90
2391;DHT22;22957;50.824;4.360;2023-10-13T02:18:18;19.70;99.90
2391;DHT22;22957;50.824;4.360;2023-10-13T02:20:49;19.50;99.90
2391;DHT22;22957;50.824;4.360;2023-10-13T02:23:23;19.60;99.90
2391;DHT22;22957;50.824;4.360;2023-10-13T02:25:56;19.60;99.90
2391;DHT22;22957;50.824;4.360;2023-10-13T02:28:38;19.70;99.90
2391;DHT22;22957;50.824;4.360;2023-10-13T02:31:04;19.60;99.90
2391;DHT22;22957;50.824;4.360;2023-10-13T02:33:32;19.90;99.90
2391;DHT22;22957;50.824;4.360;2023-10-13T02:36:03;19.80;99.90
2391;DHT22;22957;50.824;4.360;2023-10-13T02:38:33;19.90;99.90
2391;DHT22;22957;50.824;4.360;2023-10-13T02:41:01;19.70;99.90
2391;DHT22;22957;50.824;4.360;2023-10-13T02:43:32;19.80;99.90
2391;DHT22;22957;50.824;4.360;2023-10-13T02:45:58;19.70;99.90
2391;DHT22;22957;50.824;4.360;2023-10-13T02:48:28;19.70;99.90
2391;DHT22;22957;50.824;4.360;2023-10-13T02:51:08;19.50;99.90
2391;DHT22;22957;50.824;4.360;2023-10-13T02:53:47;19.60;99.90
2391;DHT22;22957;50.824;4.360;2023-10-13T02:56:14;19.50;99.90
2391;DHT22;22957;50.824;4.360;2023-10-13T02:58:47;19.50;99.90
2391;DHT22;22957;50.824;4.360;2023-10-13T03:01:19;19.50;99.90
2391;DHT22;22957;50.824;4.360;2023-10-13T03:03:49;19.60;99.90
2391;DHT22;22957;50.824;4.360;2023-10-13T03:06:18;19.50;99.90
2391;DHT22;22957;50.824;4.360;2023-10-13T03:08:47;19.60;99.90
2391;DHT22;22957;50.824;4.360;2023-10-13T03:11:13;19.60;99.90
2391;DHT22;22957;50.824;4.360;2023-10-13T03:13:40;19.60;99.90
2391;DHT22;22957;50.824;4.360;2023-10-13T03:16:16;19.50;99.90
2391;DHT22;22957;50.824;4.360;2023-10-13T03:18:48;19.50;99.90
2391;DHT22;22957;50.824;4.360;2023-10-13T03:21:20;19.50;99.90
2391;DHT22;22957;50.824;4.360;2023-10-13T03:24:00;19.50;99.90
2391;DHT22;22957;50.824;4.360;2023-10-13T03:26:32;19.50;99.90
2391;DHT22;22957;50.824;4.360;2023-10-13T03:29:03;19.50;99.90
2391;DHT22;22957;50.824;4.360;2023-10-13T03:31:30;19.40;99.90
2391;DHT22;22957;50.824;4.360;2023-10-13T03:34:05;19.40;99.90
2391;DHT22;22957;50.824;4.360;2023-10-13T03:36:37;19.30;99.90
2391;DHT22;22957;50.824;4.360;2023-10-13T03:39:22;19.40;99.90
2391;DHT22;22957;50.824;4.360;2023-10-13T03:41:54;19.50;99.90
2391;DHT22;22957;50.824;4.360;2023-10-13T03:44:19;19.60;99.90
2391;DHT22;22957;50.824;4.360;2023-10-13T03:46:46;19.40;99.90
2391;DHT22;22957;50.824;4.360;2023-10-13T03:49:16;19.40;99.90
2391;DHT22;22957;50.824;4.360;2023-10-13T03:51:48;19.40;99.90
2391;DHT22;22957;50.824;4.360;2023-10-13T03:54:14;19.50;99.90
2391;DHT22;22957;50.824;4.360;2023-10-13T03:56:42;19.40;99.90
2391;DHT22;22957;50.824;4.360;2023-10-13T03:59:11;19.30;99.90
2391;DHT22;22957;50.824;4.360;2023-10-13T04:01:42;19.30;99.90
2391;DHT22;22957;50.824;4.360;2023-10-13T04:04:11;19.40;99.90
2391;DHT22;22957;50.824;4.360;2023-10-13T04:06:41;19.30;99.90
2391;DHT22;22957;50.824;4.360;2023-10-13T04:09:14;19.40;99.90
2391;DHT22;22957;50.824;4.360;2023-10-13T04:12:02;19.40;99.90
2391;DHT22;22957;50.824;4.360;2023-10-13T04:14:33;19.30;99.90
2391;DHT22;22957;50.824;4.360;2023-10-13T04:17:18;19.20;99.90
2391;DHT22;22957;50.824;4.360;2023-10-13T04:19:55;19.20;99.90
2391;DHT22;22957;50.824;4.360;2023-10-13T04:22:34;19.30;99.90
2391;DHT22;22957;50.824;4.360;2023-10-13T04:25:19;19.40;99.90
2391;DHT22;22957;50.824;4.360;2023-10-13T04:28:04;19.30;99.90
2391;DHT22;22957;50.824;4.360;2023-10-13T04:30:49;19.40;99.90
2391;DHT22;22957;50.824;4.360;2023-10-13T04:38:43;19.30;99.90
2391;DHT22;22957;50.824;4.360;2023-10-13T04:41:32;19.40;99.90
2391;DHT22;22957;50.824;4.360;2023-10-13T04:44:09;19.50;99.90
2391;DHT22;22957;50.824;4.360;2023-10-13T04:46:54;19.40;99.90
2391;DHT22;22957;50.824;4.360;2023-10-13T04:49:33;19.60;99.90
2391;DHT22;22957;50.824;4.360;2023-10-13T04:52:01;19.50;99.90
2391;DHT22;22957;50.824;4.360;2023-10-13T04:54:36;19.60;99.90
2391;DHT22;22957;50.824;4.360;2023-10-13T04:57:15;19.70;99.90
2391;DHT22;22957;50.824;4.360;2023-10-13T05:00:01;19.60;99.90
2391;DHT22;22957;50.824;4.360;2023-10-13T05:02:42;19.70;99.90
2391;DHT22;22957;50.824;4.360;2023-10-13T05:05:28;19.70;99.90
2391;DHT22;22957;50.824;4.360;2023-10-13T05:08:12;19.50;99.90
2391;DHT22;22957;50.824;4.360;2023-10-13T05:10:56;19.60;99.90
2391;DHT22;22957;50.824;4.360;2023-10-13T05:14:00;19.60;99.90
2391;DHT22;22957;50.824;4.360;2023-10-13T05:16:44;19.70;99.90
2391;DHT22;22957;50.824;4.360;2023-10-13T05:19:28;19.60;99.90
2391;DHT22;22957;50.824;4.360;2023-10-13T05:22:12;19.60;99.90
2391;DHT22;22957;50.824;4.360;2023-10-13T05:24:56;19.70;99.90
2391;DHT22;22957;50.824;4.360;2023-10-13T05:27:41;19.60;99.90
2391;DHT22;22957;50.824;4.360;2023-10-13T05:30:25;19.70;99.90
2391;DHT22;22957;50.824;4.360;2023-10-13T05:33:09;19.60;99.90
2391;DHT22;22957;50.824;4.360;2023-10-13T05:35:53;19.50;99.90
2391;DHT22;22957;50.824;4.360;2023-10-13T05:38:37;19.60;99.90
2391;DHT22;22957;50.824;4.360;2023-10-13T05:41:22;19.50;99.90
2391;DHT22;22957;50.824;4.360;2023-10-13T05:44:06;19.60;99.90
2391;DHT22;22957;50.824;4.360;2023-10-13T05:46:50;19.60;99.90
2391;DHT22;22957;50.824;4.360;2023-10-13T05:49:34;19.50;99.90
2391;DHT22;22957;50.824;4.360;2023-10-13T05:52:15;19.50;99.90
2391;DHT22;22957;50.824;4.360;2023-10-13T05:54:59;19.60;99.90
2391;DHT22;22957;50.824;4.360;2023-10-13T05:57:44;19.60;99.90
2391;DHT22;22957;50.824;4.360;2023-10-13T06:00:28;19.50;99.90
2391;DHT22;22957;50.824;4.360;2023-10-13T06:03:12;19.50;99.90
2391;DHT22;22957;50.824;4.360;2023-10-13T06:05:56;19.60;99.90
2391;DHT22;22957;50.824;4.360;2023-10-13T06:08:40;19.60;99.90
2391;DHT22;22957;50.824;4.360;2023-10-13T06:11:24;19.50;99.90
2391;DHT22;22957;50.824;4.360;2023-10-13T06:14:09;19.60;99.90
2391;DHT22;22957;50.824;4.360;2023-10-13T06:16:53;19.70;99.90
2391;DHT22;22957;50.824;4.360;2023-10-13T06:19:37;19.70;99.90
2391;DHT22;22957;50.824;4.360;2023-10-13T06:22:21;19.80;99.90
2391;DHT22;22957;50.824;4.360;2023-10-13T06:25:05;19.80;99.90
2391;DHT22;22957;50.824;4.360;2023-10-13T06:27:49;19.80;99.90
2391;DHT22;22957;50.824;4.360;2023-10-13T06:30:33;19.80;99.90
2391;DHT22;22957;50.824;4.360;2023-10-13T06:32:59;20.10;99.90
2391;DHT22;22957;50.824;4.360;2023-10-13T06:35:26;20.10;99.90
2391;DHT22;22957;50.824;4.360;2023-10-13T06:37:52;20.10;99.90
2391;DHT22;22957;50.824;4.360;2023-10-13T06:40:17;20.10;99.90
2391;DHT22;22957;50.824;4.360;2023-10-13T06:42:59;20.00;99.90
2391;DHT22;22957;50.824;4.360;2023-10-13T06:45:39;20.20;99.90
2391;DHT22;22957;50.824;4.360;2023-10-13T06:48:07;20.10;99.90
2391;DHT22;22957;50.824;4.360;2023-10-13T06:50:37;20.00;99.90
2391;DHT22;22957;50.824;4.360;2023-10-13T06:53:07;20.10;99.90
2391;DHT22;22957;50.824;4.360;2023-10-13T06:55:37;20.20;99.90
2391;DHT22;22957;50.824;4.360;2023-10-13T06:58:08;20.30;99.90
2391;DHT22;22957;50.824;4.360;2023-10-13T07:00:39;20.30;99.90
2391;DHT22;22957;50.824;4.360;2023-10-13T07:03:06;20.40;99.90
2391;DHT22;22957;50.824;4.360;2023-10-13T07:05:36;20.60;99.90
2391;DHT22;22957;50.824;4.360;2023-10-13T07:08:06;20.70;99.90
2391;DHT22;22957;50.824;4.360;2023-10-13T07:10:32;20.70;99.90
2391;DHT22;22957;50.824;4.360;2023-10-13T07:13:13;20.70;99.90
2391;DHT22;22957;50.824;4.360;2023-10-13T07:15:39;20.70;99.90
2391;DHT22;22957;50.824;4.360;2023-10-13T07:18:11;20.60;99.90
2391;DHT22;22957;50.824;4.360;2023-10-13T07:20:39;20.80;99.90
2391;DHT22;22957;50.824;4.360;2023-10-13T07:23:10;21.00;99.90
2391;DHT22;22957;50.824;4.360;2023-10-13T07:25:52;21.10;99.90
2391;DHT22;22957;50.824;4.360;2023-10-13T07:28:20;21.10;99.90
2391;DHT22;22957;50.824;4.360;2023-10-13T07:30:46;21.30;99.90
2391;DHT22;22957;50.824;4.360;2023-10-13T07:33:21;21.30;99.90
2391;DHT22;22957;50.824;4.360;2023-10-13T07:35:47;21.40;99.90
2391;DHT22;22957;50.824;4.360;2023-10-13T07:38:17;21.50;99.90
2391;DHT22;22957;50.824;4.360;2023-10-13T07:40:46;21.40;99.90
2391;DHT22;22957;50.824;4.360;2023-10-13T07:43:19;21.40;99.90
2391;DHT22;22957;50.824;4.360;2023-10-13T07:45:46;21.10;99.90
2391;DHT22;22957;50.824;4.360;2023-10-13T07:48:16;21.40;99.90
2391;DHT22;22957;50.824;4.360;2023-10-13T07:50:59;21.50;99.90
2391;DHT22;22957;50.824;4.360;2023-10-13T07:53:28;21.60;99.90
2391;DHT22;22957;50.824;4.360;2023-10-13T07:56:02;21.70;99.90
2391;DHT22;22957;50.824;4.360;2023-10-13T07:58:30;21.80;99.90
2391;DHT22;22957;50.824;4.360;2023-10-13T08:00:59;21.80;99.90
2391;DHT22;22957;50.824;4.360;2023-10-13T08:03:42;21.60;99.90
2391;DHT22;22957;50.824;4.360;2023-10-13T08:06:12;21.90;99.90
2391;DHT22;22957;50.824;4.360;2023-10-13T08:08:38;21.80;99.90
2391;DHT22;22957;50.824;4.360;2023-10-13T08:11:08;21.90;99.90
2391;DHT22;22957;50.824;4.360;2023-10-13T08:13:41;21.70;99.90
2391;DHT22;22957;50.824;4.360;2023-10-13T08:16:15;21.90;99.90
2391;DHT22;22957;50.824;4.360;2023-10-13T08:18:51;21.80;99.90
2391;DHT22;22957;50.824;4.360;2023-10-13T08:21:20;22.00;99.90
2391;DHT22;22957;50.824;4.360;2023-10-13T08:23:50;22.20;99.90
2391;DHT22;22957;50.824;4.360;2023-10-13T08:26:22;22.30;99.90
2391;DHT22;22957;50.824;4.360;2023-10-13T08:29:06;22.30;99.90
2391;DHT22;22957;50.824;4.360;2023-10-13T08:31:48;22.30;99.90
2391;DHT22;22957;50.824;4.360;2023-10-13T08:34:32;22.30;99.90
2391;DHT22;22957;50.824;4.360;2023-10-13T08:37:14;21.90;99.90
2391;DHT22;22957;50.824;4.360;2023-10-13T08:39:56;22.20;99.90
2391;DHT22;22957;50.824;4.360;2023-10-13T08:42:36;22.00;99.90
2391;DHT22;22957;50.824;4.360;2023-10-13T08:45:09;22.20;99.90
2391;DHT22;22957;50.824;4.360;2023-10-13T08:47:57;22.30;99.90
2391;DHT22;22957;50.824;4.360;2023-10-13T08:50:50;22.40;99.90
2391;DHT22;22957;50.824;4.360;2023-10-13T08:53:25;22.30;99.90
2391;DHT22;22957;50.824;4.360;2023-10-13T08:56:05;22.00;99.90
2391;DHT22;22957;50.824;4.360;2023-10-13T08:58:47;22.10;99.90
2391;DHT22;22957;50.824;4.360;2023-10-13T09:01:26;22.30;99.90
2391;DHT22;22957;50.824;4.360;2023-10-13T09:04:12;22.40;99.90
2391;DHT22;22957;50.824;4.360;2023-10-13T09:06:48;22.20;99.90
2391;DHT22;22957;50.824;4.360;2023-10-13T09:12:27;22.50;99.90
2391;DHT22;22957;50.824;4.360;2023-10-13T09:15:09;22.50;99.90
2391;DHT22;22957;50.824;4.360;2023-10-13T09:17:41;22.40;99.90
2391;DHT22;22957;50.824;4.360;2023-10-13T09:20:09;22.30;99.90
2391;DHT22;22957;50.824;4.360;2023-10-13T09:22:51;22.50;99.90
2391;DHT22;22957;50.824;4.360;2023-10-13T09:25:29;22.50;99.90
2391;DHT22;22957;50.824;4.360;2023-10-13T09:27:59;22.70;99.90
2391;DHT22;22957;50.824;4.360;2023-10-13T09:30:26;22.60;99.90
2391;DHT22;22957;50.824;4.360;2023-10-13T09:33:03;22.70;99.90
2391;DHT22;22957;50.824;4.360;2023-10-13T09:35:34;22.80;99.90
2391;DHT22;22957;50.824;4.360;2023-10-13T09:38:03;23.00;99.90
2391;DHT22;22957;50.824;4.360;2023-10-13T09:40:30;22.90;99.90
2391;DHT22;22957;50.824;4.360;2023-10-13T09:42:59;22.90;99.90
2391;DHT22;22957;50.824;4.360;2023-10-13T09:45:34;22.80;99.90
2391;DHT22;22957;50.824;4.360;2023-10-13T09:48:12;23.00;99.90
2391;DHT22;22957;50.824;4.360;2023-10-13T09:50:52;22.80;99.90
2391;DHT22;22957;50.824;4.360;2023-10-13T09:53:22;22.70;99.90
2391;DHT22;22957;50.824;4.360;2023-10-13T09:55:55;22.90;99.90
2391;DHT22;22957;50.824;4.360;2023-10-13T09:58:27;22.80;99.90
2391;DHT22;22957;50.824;4.360;2023-10-13T10:01:02;22.80;99.90
2391;DHT22;22957;50.824;4.360;2023-10-13T10:03:48;23.30;99.90
2391;DHT22;22957;50.824;4.360;2023-10-13T10:06:22;23.30;99.90
2391;DHT22;22957;50.824;4.360;2023-10-13T10:09:14;23.50;99.90
2391;DHT22;22957;50.824;4.360;2023-10-13T10:17:41;23.40;99.90
2391;DHT22;22957;50.824;4.360;2023-10-13T10:20:08;23.80;99.90
2391;DHT22;22957;50.824;4.360;2023-10-13T10:22:40;23.80;99.90
2391;DHT22;22957;50.824;4.360;2023-10-13T10:25:13;24.00;99.90
2391;DHT22;22957;50.824;4.360;2023-10-13T10:30:38;24.20;99.90
2391;DHT22;22957;50.824;4.360;2023-10-13T10:33:05;24.40;99.90
2391;DHT22;22957;50.824;4.360;2023-10-13T10:36:00;24.10;99.90
2391;DHT22;22957;50.824;4.360;2023-10-13T10:38:26;24.30;99.90
2391;DHT22;22957;50.824;4.360;2023-10-13T10:40:57;24.00;99.90
2391;DHT22;22957;50.824;4.360;2023-10-13T10:46:27;24.10;99.90
2391;DHT22;22957;50.824;4.360;2023-10-13T10:48:56;24.00;99.90
2391;DHT22;22957;50.824;4.360;2023-10-13T10:51:27;24.10;99.90
2391;DHT22;22957;50.824;4.360;2023-10-13T10:53:59;24.50;99.90
2391;DHT22;22957;50.824;4.360;2023-10-13T10:56:37;24.60;99.90
2391;DHT22;22957;50.824;4.360;2023-10-13T10:59:05;24.90;99.90
2391;DHT22;22957;50.824;4.360;2023-10-13T11:01:31;24.80;99.90
2391;DHT22;22957;50.824;4.360;2023-10-13T11:04:05;25.00;99.90
2391;DHT22;22957;50.824;4.360;2023-10-13T11:06:46;25.20;99.90
2391;DHT22;22957;50.824;4.360;2023-10-13T11:09:12;25.00;99.90
2391;DHT22;22957;50.824;4.360;2023-10-13T11:11:46;25.10;99.90
2391;DHT22;22957;50.824;4.360;2023-10-13T11:14:26;25.20;99.90
2391;DHT22;22957;50.824;4.360;2023-10-13T11:16:53;24.80;99.90
2391;DHT22;22957;50.824;4.360;2023-10-13T11:19:41;24.60;99.90
2391;DHT22;22957;50.824;4.360;2023-10-13T11:22:20;24.90;99.90
2391;DHT22;22957;50.824;4.360;2023-10-13T11:24:58;25.10;99.90
2391;DHT22;22957;50.824;4.360;2023-10-13T11:27:29;25.00;99.90
2391;DHT22;22957;50.824;4.360;2023-10-13T11:30:11;24.90;99.90
2391;DHT22;22957;50.824;4.360;2023-10-13T11:32:38;24.80;99.90
2391;DHT22;22957;50.824;4.360;2023-10-13T11:35:10;25.10;99.90
2391;DHT22;22957;50.824;4.360;2023-10-13T11:37:54;25.00;99.90
2391;DHT22;22957;50.824;4.360;2023-10-13T11:40:29;25.00;99.90
2391;DHT22;22957;50.824;4.360;2023-10-13T11:43:47;24.90;99.90
2391;DHT22;22957;50.824;4.360;2023-10-13T11:46:20;25.10;99.90
2391;DHT22;22957;50.824;4.360;2023-10-13T11:49:08;24.80;99.90
2391;DHT22;22957;50.824;4.360;2023-10-13T11:51:57;25.00;99.90
2391;DHT22;22957;50.824;4.360;2023-10-13T11:54:34;25.10;99.90
2391;DHT22;22957;50.824;4.360;2023-10-13T11:57:01;25.00;99.90
2391;DHT22;22957;50.824;4.360;2023-10-13T11:59:27;25.10;99.90
2391;DHT22;22957;50.824;4.360;2023-10-13T12:01:53;25.00;99.90
2391;DHT22;22957;50.824;4.360;2023-10-13T12:04:38;25.10;99.90
2391;DHT22;22957;50.824;4.360;2023-10-13T12:07:10;25.20;99.90
2391;DHT22;22957;50.824;4.360;2023-10-13T12:09:54;25.30;99.90
2391;DHT22;22957;50.824;4.360;2023-10-13T12:12:27;25.10;99.90
2391;DHT22;22957;50.824;4.360;2023-10-13T12:14:54;25.10;99.90
2391;DHT22;22957;50.824;4.360;2023-10-13T12:17:30;25.10;99.90
2391;DHT22;22957;50.824;4.360;2023-10-13T12:20:06;24.90;99.90
2391;DHT22;22957;50.824;4.360;2023-10-13T12:22:36;24.90;99.90
2391;DHT22;22957;50.824;4.360;2023-10-13T12:25:10;24.90;99.90
2391;DHT22;22957;50.824;4.360;2023-10-13T12:27:59;25.00;99.90
2391;DHT22;22957;50.824;4.360;2023-10-13T12:30:39;24.60;99.90
2391;DHT22;22957;50.824;4.360;2023-10-13T12:33:21;24.40;99.90
2391;DHT22;22957;50.824;4.360;2023-10-13T12:36:00;24.40;99.90
2391;DHT22;22957;50.824;4.360;2023-10-13T12:38:35;24.40;99.90
2391;DHT22;22957;50.824;4.360;2023-10-13T12:41:06;24.10;99.90
2391;DHT22;22957;50.824;4.360;2023-10-13T12:43:50;24.30;99.90
2391;DHT22;22957;50.824;4.360;2023-10-13T12:46:35;24.10;99.90
2391;DHT22;22957;50.824;4.360;2023-10-13T12:49:19;24.30;99.90
2391;DHT22;22957;50.824;4.360;2023-10-13T12:52:03;24.10;99.90
2391;DHT22;22957;50.824;4.360;2023-10-13T12:54:29;23.80;99.90
2391;DHT22;22957;50.824;4.360;2023-10-13T12:57:01;23.80;99.90
2391;DHT22;22957;50.824;4.360;2023-10-13T12:59:27;23.80;99.90
2391;DHT22;22957;50.824;4.360;2023-10-13T13:01:53;23.90;99.90
2391;DHT22;22957;50.824;4.360;2023-10-13T13:04:19;23.90;99.90
2391;DHT22;22957;50.824;4.360;2023-10-13T13:06:57;23.80;99.90
2391;DHT22;22957;50.824;4.360;2023-10-13T13:09:22;23.80;99.90
2391;DHT22;22957;50.824;4.360;2023-10-13T13:11:54;24.00;99.90
2391;DHT22;22957;50.824;4.360;2023-10-13T13:14:26;24.10;99.90
2391;DHT22;22957;50.824;4.360;2023-10-13T13:16:57;24.30;99.90
2391;DHT22;22957;50.824;4.360;2023-10-13T13:19:36;24.10;99.90
2391;DHT22;22957;50.824;4.360;2023-10-13T13:22:05;24.20;99.90
2391;DHT22;22957;50.824;4.360;2023-10-13T13:24:40;24.20;99.90
2391;DHT22;22957;50.824;4.360;2023-10-13T13:27:14;24.00;99.90
2391;DHT22;22957;50.824;4.360;2023-10-13T13:29:41;24.20;99.90
2391;DHT22;22957;50.824;4.360;2023-10-13T13:32:07;23.90;99.90
2391;DHT22;22957;50.824;4.360;2023-10-13T13:34:43;24.20;99.90
2391;DHT22;22957;50.824;4.360;2023-10-13T13:37:09;24.20;99.90
2391;DHT22;22957;50.824;4.360;2023-10-13T13:39:38;24.10;99.90
2391;DHT22;22957;50.824;4.360;2023-10-13T13:42:09;24.30;99.90
2391;DHT22;22957;50.824;4.360;2023-10-13T13:44:35;24.30;99.90
2391;DHT22;22957;50.824;4.360;2023-10-13T13:47:03;24.30;99.90
2391;DHT22;22957;50.824;4.360;2023-10-13T13:49:38;24.50;99.90
2391;DHT22;22957;50.824;4.360;2023-10-13T13:52:17;24.70;99.90
2391;DHT22;22957;50.824;4.360;2023-10-13T13:54:47;24.50;99.90
2391;DHT22;22957;50.824;4.360;2023-10-13T13:57:12;24.60;99.90
2391;DHT22;22957;50.824;4.360;2023-10-13T13:59:39;24.70;99.90
2391;DHT22;22957;50.824;4.360;2023-10-13T14:02:05;24.40;99.90
2391;DHT22;22957;50.824;4.360;2023-10-13T14:04:46;24.50;99.90
2391;DHT22;22957;50.824;4.360;2023-10-13T14:07:13;24.40;99.90
2391;DHT22;22957;50.824;4.360;2023-10-13T14:09:40;24.20;99.90
2391;DHT22;22957;50.824;4.360;2023-10-13T14:12:09;24.00;99.90
2391;DHT22;22957;50.824;4.360;2023-10-13T14:14:53;24.10;99.90
2391;DHT22;22957;50.824;4.360;2023-10-13T14:17:23;24.10;99.90
2391;DHT22;22957;50.824;4.360;2023-10-13T14:19:56;24.30;99.90
2391;DHT22;22957;50.824;4.360;2023-10-13T14:22:22;24.30;99.90
2391;DHT22;22957;50.824;4.360;2023-10-13T14:24:51;24.30;99.90
2391;DHT22;22957;50.824;4.360;2023-10-13T14:27:34;24.30;99.90
2391;DHT22;22957;50.824;4.360;2023-10-13T14:30:01;24.50;99.90
2391;DHT22;22957;50.824;4.360;2023-10-13T14:32:28;24.20;99.90
2391;DHT22;22957;50.824;4.360;2023-10-13T14:34:54;24.30;99.90
2391;DHT22;22957;50.824;4.360;2023-10-13T14:37:21;24.20;99.90
2391;DHT22;22957;50.824;4.360;2023-10-13T14:39:57;24.00;99.90
2391;DHT22;22957;50.824;4.360;2023-10-13T14:42:27;24.00;99.90
2391;DHT22;22957;50.824;4.360;2023-10-13T14:44:53;24.10;99.90
2391;DHT22;22957;50.824;4.360;2023-10-13T14:47:24;23.90;99.90
2391;DHT22;22957;50.824;4.360;2023-10-13T14:49:55;23.90;99.90
2391;DHT22;22957;50.824;4.360;2023-10-13T14:52:22;23.90;99.90
2391;DHT22;22957;50.824;4.360;2023-10-13T14:54:47;24.00;99.90
2391;DHT22;22957;50.824;4.360;2023-10-13T14:57:20;23.80;99.90
2391;DHT22;22957;50.824;4.360;2023-10-13T14:59:53;23.80;99.90
2391;DHT22;22957;50.824;4.360;2023-10-13T15:02:19;23.70;99.90
2391;DHT22;22957;50.824;4.360;2023-10-13T15:04:48;23.60;99.90
2391;DHT22;22957;50.824;4.360;2023-10-13T15:07:14;23.30;99.90
2391;DHT22;22957;50.824;4.360;2023-10-13T15:09:44;23.30;99.90
2391;DHT22;22957;50.824;4.360;2023-10-13T15:12:10;23.30;99.90
2391;DHT22;22957;50.824;4.360;2023-10-13T15:14:39;23.20;99.90
2391;DHT22;22957;50.824;4.360;2023-10-13T15:17:11;23.20;99.90
2391;DHT22;22957;50.824;4.360;2023-10-13T15:19:41;23.20;99.90
2391;DHT22;22957;50.824;4.360;2023-10-13T15:22:08;23.10;99.90
2391;DHT22;22957;50.824;4.360;2023-10-13T15:24:42;23.00;99.90
2391;DHT22;22957;50.824;4.360;2023-10-13T15:27:23;23.10;99.90
2391;DHT22;22957;50.824;4.360;2023-10-13T15:29:48;22.90;99.90
2391;DHT22;22957;50.824;4.360;2023-10-13T15:32:16;22.80;99.90
2391;DHT22;22957;50.824;4.360;2023-10-13T15:35:00;22.60;99.90
2391;DHT22;22957;50.824;4.360;2023-10-13T15:37:26;22.50;99.90
2391;DHT22;22957;50.824;4.360;2023-10-13T15:39:52;22.30;99.90
2391;DHT22;22957;50.824;4.360;2023-10-13T15:42:18;22.40;99.90
2391;DHT22;22957;50.824;4.360;2023-10-13T15:44:46;22.60;99.90
2391;DHT22;22957;50.824;4.360;2023-10-13T15:47:13;22.50;99.90
2391;DHT22;22957;50.824;4.360;2023-10-13T15:49:39;22.40;99.90
2391;DHT22;22957;50.824;4.360;2023-10-13T15:52:08;22.50;99.90
2391;DHT22;22957;50.824;4.360;2023-10-13T15:54:35;22.40;99.90
2391;DHT22;22957;50.824;4.360;2023-10-13T15:57:01;22.50;99.90
2391;DHT22;22957;50.824;4.360;2023-10-13T15:59:26;22.40;99.90
2391;DHT22;22957;50.824;4.360;2023-10-13T16:01:52;22.40;99.90
2391;DHT22;22957;50.824;4.360;2023-10-13T16:04:23;22.20;99.90
2391;DHT22;22957;50.824;4.360;2023-10-13T16:06:48;22.30;99.90
2391;DHT22;22957;50.824;4.360;2023-10-13T16:09:17;22.40;99.90
2391;DHT22;22957;50.824;4.360;2023-10-13T16:11:53;22.60;99.90
2391;DHT22;22957;50.824;4.360;2023-10-13T16:14:19;22.30;99.90
2391;DHT22;22957;50.824;4.360;2023-10-13T16:16:50;22.20;99.90
2391;DHT22;22957;50.824;4.360;2023-10-13T16:19:19;22.10;99.90
2391;DHT22;22957;50.824;4.360;2023-10-13T16:21:53;22.00;99.90
2391;DHT22;22957;50.824;4.360;2023-10-13T16:24:20;22.10;99.90
2391;DHT22;22957;50.824;4.360;2023-10-13T16:26:50;21.90;99.90
2391;DHT22;22957;50.824;4.360;2023-10-13T16:29:18;21.90;99.90
2391;DHT22;22957;50.824;4.360;2023-10-13T16:31:45;21.60;99.90
2391;DHT22;22957;50.824;4.360;2023-10-13T16:34:14;21.70;99.90
2391;DHT22;22957;50.824;4.360;2023-10-13T16:36:46;21.60;99.90
2391;DHT22;22957;50.824;4.360;2023-10-13T16:39:13;21.30;99.90
2391;DHT22;22957;50.824;4.360;2023-10-13T16:41:43;21.30;99.90
2391;DHT22;22957;50.824;4.360;2023-10-13T16:44:10;21.10;99.90
2391;DHT22;22957;50.824;4.360;2023-10-13T16:46:37;21.20;99.90
2391;DHT22;22957;50.824;4.360;2023-10-13T16:49:03;21.10;99.90